Time;durP1;ratioP1;P1;durP2;ratioP2;P2;SDS_P1;SDS_P2;PMS_P1;PMS_P2;Temp;Humidity;BMP_temperature;BMP_pressure;BME280_temperature;BME280_humidity;BME280_pressure;Samples;Min_cycle;Max_cycle;Signal;HPM_P1;HPM_P2
2022/09/10 00:01:31;;;;;;;7.35;1.95;;;;;;;;;;5136293;27;20022;-45
2022/09/10 00:03:57;;;;;;;3.03;1.15;;;;;;;;;;5125984;27;20023;-43
2022/09/10 00:06:26;;;;;;;3.88;2.08;;;;;;;;;;5137507;27;20424;-43
2022/09/10 00:08:56;;;;;;;5.45;2.47;;;;;;;;;;5135218;27;20021;-44
2022/09/10 00:11:21;;;;;;;3.05;1.63;;;;;;;;;;5130854;27;20409;-43
2022/09/10 00:13:46;;;;;;;3.78;1.30;;;;;;;;;;5139877;27;20481;-47
2022/09/10 00:16:13;;;;;;;5.05;2.28;;;;;;;;;;5137273;27;20037;-46
2022/09/10 00:18:39;;;;;;;2.28;1.45;;;;;;;;;;5136110;27;20015;-46
2022/09/10 00:21:05;;;;;;;4.38;1.73;;;;;;;;;;5135387;27;20026;-45
2022/09/10 00:23:30;;;;;;;6.70;1.83;;;;;;;;;;5135872;27;20125;-43
2022/09/10 00:25:56;;;;;;;2.65;1.70;;;;;;;;;;5131073;27;20141;-47
2022/09/10 00:28:23;;;;;;;2.47;1.05;;;;;;;;;;5130916;27;20022;-45
2022/09/10 00:30:49;;;;;;;3.30;1.85;;;;;;;;;;5140538;27;20022;-43
2022/09/10 00:33:15;;;;;;;1.42;1.33;;;;;;;;;;5134446;27;20026;-44
2022/09/10 00:35:41;;;;;;;8.63;1.55;;;;;;;;;;5141918;27;20011;-45
2022/09/10 00:38:07;;;;;;;2.85;1.30;;;;;;;;;;5134659;27;20686;-44
2022/09/10 00:40:33;;;;;;;8.10;1.52;;;;;;;;;;5128949;27;20081;-42
2022/09/10 00:42:58;;;;;;;2.40;0.75;;;;;;;;;;5128681;27;20427;-43
2022/09/10 00:45:28;;;;;;;9.63;1.85;;;;;;;;;;5131005;27;20024;-46
2022/09/10 00:47:56;;;;;;;1.05;0.70;;;;;;;;;;5127185;27;20497;-43
2022/09/10 00:50:21;;;;;;;3.35;1.77;;;;;;;;;;5130591;27;20046;-44
2022/09/10 00:52:47;;;;;;;4.95;1.83;;;;;;;;;;5134517;27;20027;-43
2022/09/10 00:55:12;;;;;;;4.85;2.10;;;;;;;;;;5138268;27;20127;-45
2022/09/10 00:57:38;;;;;;;1.83;1.13;;;;;;;;;;5132934;27;20442;-45
2022/09/10 01:00:06;;;;;;;1.77;1.02;;;;;;;;;;5134362;27;20073;-45
2022/09/10 01:02:32;;;;;;;1.92;1.15;;;;;;;;;;5127389;27;20030;-47
2022/09/10 01:04:57;;;;;;;4.68;1.30;;;;;;;;;;5126227;27;20434;-45
2022/09/10 01:07:24;;;;;;;2.17;0.93;;;;;;;;;;5136084;27;20046;-45
2022/09/10 01:09:49;;;;;;;2.58;1.15;;;;;;;;;;5132266;27;20065;-42
2022/09/10 01:12:33;;;;;;;2.00;0.80;;;;;;;;;;5132525;27;20059;-43
2022/09/10 01:15:05;;;;;;;1.38;0.50;;;;;;;;;;5128751;27;20031;-48
2022/09/10 01:17:40;;;;;;;2.70;0.82;;;;;;;;;;5137076;27;20023;-44
2022/09/10 01:20:14;;;;;;;3.42;1.50;;;;;;;;;;5132306;27;20052;-43
2022/09/10 01:22:46;;;;;;;1.30;1.10;;;;;;;;;;5137901;27;20019;-45
2022/09/10 01:25:23;;;;;;;1.65;1.25;;;;;;;;;;5133372;27;20474;-44
2022/09/10 01:27:52;;;;;;;2.45;1.25;;;;;;;;;;5128836;27;20024;-44
2022/09/10 01:30:29;;;;;;;5.22;2.13;;;;;;;;;;5134196;27;20076;-45
2022/09/10 01:33:09;;;;;;;3.70;1.83;;;;;;;;;;5131152;27;20019;-44
2022/09/10 01:35:46;;;;;;;2.45;0.98;;;;;;;;;;5131897;27;20130;-44
2022/09/10 01:38:14;;;;;;;2.20;1.27;;;;;;;;;;5131564;27;20020;-46
2022/09/10 01:40:39;;;;;;;4.80;1.70;;;;;;;;;;5134716;27;20050;-45
2022/09/10 01:43:06;;;;;;;1.60;1.10;;;;;;;;;;5133571;27;20610;-44
2022/09/10 01:45:35;;;;;;;5.15;1.48;;;;;;;;;;5128263;27;20107;-48
2022/09/10 01:48:06;;;;;;;3.67;1.20;;;;;;;;;;5133737;27;20027;-45
2022/09/10 01:50:34;;;;;;;6.10;1.38;;;;;;;;;;5142345;27;20524;-47
2022/09/10 01:53:06;;;;;;;1.33;0.93;;;;;;;;;;5132281;27;20645;-44
2022/09/10 01:55:54;;;;;;;2.53;1.05;;;;;;;;;;5130610;27;20046;-44
2022/09/10 01:58:26;;;;;;;3.05;1.25;;;;;;;;;;5130339;27;20082;-46
2022/09/10 02:00:59;;;;;;;3.20;1.00;;;;;;;;;;5131170;27;20026;-44
2022/09/10 02:03:25;;;;;;;8.95;1.52;;;;;;;;;;5132202;27;20020;-46
2022/09/10 02:05:52;;;;;;;1.33;0.90;;;;;;;;;;5130941;27;20015;-44
2022/09/10 02:08:21;;;;;;;6.97;2.33;;;;;;;;;;5132735;27;20122;-43
2022/09/10 02:10:51;;;;;;;2.45;0.63;;;;;;;;;;5134884;27;20031;-45
2022/09/10 02:13:16;;;;;;;2.28;1.05;;;;;;;;;;5137561;27;20042;-45
2022/09/10 02:15:42;;;;;;;2.25;1.27;;;;;;;;;;5141872;27;20049;-43
2022/09/10 02:18:08;;;;;;;6.43;1.42;;;;;;;;;;5134935;27;20576;-46
2022/09/10 02:20:33;;;;;;;5.35;1.40;;;;;;;;;;5132502;27;20034;-45
2022/09/10 02:22:59;;;;;;;8.80;1.80;;;;;;;;;;5137333;27;20031;-44
2022/09/10 02:25:27;;;;;;;1.63;1.17;;;;;;;;;;5136120;27;20019;-43
2022/09/10 02:27:53;;;;;;;1.15;1.00;;;;;;;;;;5132410;27;20015;-46
2022/09/10 02:30:19;;;;;;;1.75;1.25;;;;;;;;;;5131841;27;20030;-44
2022/09/10 02:32:44;;;;;;;6.57;1.50;;;;;;;;;;5128397;27;20010;-47
2022/09/10 02:35:09;;;;;;;3.53;1.38;;;;;;;;;;5135359;27;20020;-45
2022/09/10 02:37:35;;;;;;;4.10;1.83;;;;;;;;;;5136118;27;20050;-45
2022/09/10 02:40:00;;;;;;;1.70;1.13;;;;;;;;;;5133938;27;20026;-45
2022/09/10 02:42:26;;;;;;;1.15;0.77;;;;;;;;;;5130404;27;20518;-43
2022/09/10 02:44:52;;;;;;;8.30;1.27;;;;;;;;;;5132210;27;20471;-46
2022/09/10 02:47:17;;;;;;;8.98;0.93;;;;;;;;;;5132166;27;20018;-43
2022/09/10 02:49:44;;;;;;;1.38;0.88;;;;;;;;;;5130210;27;20109;-46
2022/09/10 02:52:11;;;;;;;1.23;0.82;;;;;;;;;;5132984;27;20031;-45
2022/09/10 02:54:36;;;;;;;1.73;0.90;;;;;;;;;;5130482;27;20023;-45
2022/09/10 02:57:02;;;;;;;2.13;1.00;;;;;;;;;;5133025;27;20500;-44
2022/09/10 02:59:27;;;;;;;3.65;1.20;;;;;;;;;;5131623;27;20101;-44
2022/09/10 03:01:53;;;;;;;1.83;1.00;;;;;;;;;;5134400;27;20027;-44
2022/09/10 03:04:18;;;;;;;6.00;1.42;;;;;;;;;;5129872;27;20034;-44
2022/09/10 03:06:45;;;;;;;0.90;0.40;;;;;;;;;;5132800;27;20026;-48
2022/09/10 03:09:11;;;;;;;4.32;0.93;;;;;;;;;;5130652;27;20027;-45
2022/09/10 03:11:40;;;;;;;2.00;0.80;;;;;;;;;;5126344;27;20060;-43
2022/09/10 03:14:09;;;;;;;4.30;2.15;;;;;;;;;;5134066;27;20382;-45
2022/09/10 03:16:34;;;;;;;2.65;1.77;;;;;;;;;;5137343;27;20015;-43
2022/09/10 03:18:59;;;;;;;1.98;1.75;;;;;;;;;;5136853;27;20579;-43
2022/09/10 03:21:25;;;;;;;2.65;1.27;;;;;;;;;;5137183;27;20020;-43
2022/09/10 03:23:51;;;;;;;2.47;1.77;;;;;;;;;;5132647;27;20027;-43
2022/09/10 03:26:17;;;;;;;1.48;1.05;;;;;;;;;;5134090;27;20448;-44
2022/09/10 03:28:43;;;;;;;2.22;1.35;;;;;;;;;;5137253;27;20016;-45
2022/09/10 03:31:09;;;;;;;3.72;2.25;;;;;;;;;;5135307;27;20026;-46
2022/09/10 03:33:36;;;;;;;9.32;1.95;;;;;;;;;;5132211;27;20489;-45
2022/09/10 03:36:01;;;;;;;8.93;1.50;;;;;;;;;;5134803;27;20390;-46
2022/09/10 03:38:27;;;;;;;2.45;0.95;;;;;;;;;;5133593;27;20489;-46
2022/09/10 03:40:53;;;;;;;1.95;1.00;;;;;;;;;;5132384;27;20023;-44
2022/09/10 03:43:19;;;;;;;2.28;1.67;;;;;;;;;;5141122;27;20025;-47
2022/09/10 03:45:44;;;;;;;2.30;1.25;;;;;;;;;;5140902;27;20038;-46
2022/09/10 03:48:10;;;;;;;2.63;1.73;;;;;;;;;;5139638;27;20710;-43
2022/09/10 03:50:35;;;;;;;3.85;1.33;;;;;;;;;;5138746;27;20015;-44
2022/09/10 03:53:02;;;;;;;2.75;1.77;;;;;;;;;;5137114;27;20019;-44
2022/09/10 03:55:29;;;;;;;3.45;1.83;;;;;;;;;;5137982;27;20424;-44
2022/09/10 03:57:54;;;;;;;2.80;1.00;;;;;;;;;;5136461;27;20113;-44
2022/09/10 04:00:19;;;;;;;8.75;2.00;;;;;;;;;;5131776;27;20155;-44
2022/09/10 04:02:45;;;;;;;9.13;1.92;;;;;;;;;;5139393;27;20079;-44
2022/09/10 04:05:11;;;;;;;8.60;1.88;;;;;;;;;;5133430;27;20343;-44
2022/09/10 04:07:36;;;;;;;3.30;1.45;;;;;;;;;;5133999;27;20138;-45
2022/09/10 04:10:02;;;;;;;3.70;1.40;;;;;;;;;;5135380;27;20029;-48
2022/09/10 04:12:28;;;;;;;2.13;1.30;;;;;;;;;;5132965;27;20015;-45
2022/09/10 04:14:53;;;;;;;3.30;1.48;;;;;;;;;;5129778;27;20574;-46
2022/09/10 04:17:19;;;;;;;2.20;1.55;;;;;;;;;;5137142;27;20088;-44
2022/09/10 04:19:45;;;;;;;1.75;0.88;;;;;;;;;;5130736;27;20116;-46
2022/09/10 04:22:10;;;;;;;12.40;1.73;;;;;;;;;;5137996;27;20114;-45
2022/09/10 04:24:36;;;;;;;1.08;0.65;;;;;;;;;;5129831;27;20031;-44
2022/09/10 04:27:01;;;;;;;2.35;1.45;;;;;;;;;;5134297;27;20111;-44
2022/09/10 04:29:27;;;;;;;2.67;1.30;;;;;;;;;;5136270;27;20019;-43
2022/09/10 04:31:54;;;;;;;4.60;1.17;;;;;;;;;;5134836;27;20106;-44
2022/09/10 04:34:19;;;;;;;1.52;0.88;;;;;;;;;;5127423;27;20014;-48
2022/09/10 04:36:44;;;;;;;1.58;0.93;;;;;;;;;;5127983;27;20390;-44
2022/09/10 04:39:10;;;;;;;2.45;1.52;;;;;;;;;;5133709;27;20019;-44
2022/09/10 04:41:35;;;;;;;1.83;1.17;;;;;;;;;;5135983;27;20581;-44
2022/09/10 04:44:00;;;;;;;4.82;1.90;;;;;;;;;;5135459;27;20026;-47
2022/09/10 04:46:26;;;;;;;6.05;1.55;;;;;;;;;;5132949;27;20039;-44
2022/09/10 04:48:51;;;;;;;3.35;1.77;;;;;;;;;;5129367;27;20016;-45
2022/09/10 04:51:17;;;;;;;1.33;1.17;;;;;;;;;;5130389;27;20030;-46
2022/09/10 04:53:42;;;;;;;7.30;1.58;;;;;;;;;;5128179;27;20553;-43
2022/09/10 04:56:07;;;;;;;2.38;0.98;;;;;;;;;;5086458;27;1258194;-43
2022/09/10 04:58:33;;;;;;;6.25;1.60;;;;;;;;;;5131164;27;20109;-43
2022/09/10 05:00:58;;;;;;;4.40;1.40;;;;;;;;;;5132117;27;20070;-43
2022/09/10 05:03:23;;;;;;;2.42;1.65;;;;;;;;;;5133452;27;20094;-43
2022/09/10 05:05:49;;;;;;;5.75;1.30;;;;;;;;;;5131691;27;20031;-45
2022/09/10 05:08:15;;;;;;;2.15;0.90;;;;;;;;;;5132536;27;20030;-44
2022/09/10 05:10:40;;;;;;;6.93;1.02;;;;;;;;;;5135135;27;20015;-44
2022/09/10 05:13:06;;;;;;;2.85;1.27;;;;;;;;;;5128091;27;20454;-42
2022/09/10 05:15:33;;;;;;;2.15;1.30;;;;;;;;;;5126557;27;20056;-44
2022/09/10 05:17:59;;;;;;;8.07;1.92;;;;;;;;;;5133871;27;20497;-44
2022/09/10 05:20:26;;;;;;;4.60;1.85;;;;;;;;;;5128941;27;20023;-47
2022/09/10 05:22:51;;;;;;;4.07;2.97;;;;;;;;;;5131699;27;20450;-45
2022/09/10 05:25:16;;;;;;;5.30;1.85;;;;;;;;;;5129909;27;20038;-42
2022/09/10 05:27:42;;;;;;;2.75;1.42;;;;;;;;;;5133271;27;20015;-46
2022/09/10 05:30:07;;;;;;;1.85;1.42;;;;;;;;;;5130777;27;20022;-45
2022/09/10 05:32:33;;;;;;;1.98;1.00;;;;;;;;;;5132915;27;20110;-47
2022/09/10 05:34:59;;;;;;;2.08;1.73;;;;;;;;;;5133814;27;20098;-44
2022/09/10 05:37:24;;;;;;;2.22;1.00;;;;;;;;;;5136950;27;20029;-45
2022/09/10 05:39:49;;;;;;;3.35;0.95;;;;;;;;;;5132463;27;20490;-43
2022/09/10 05:42:14;;;;;;;3.78;1.90;;;;;;;;;;5133412;27;20147;-47
2022/09/10 05:44:40;;;;;;;2.75;1.73;;;;;;;;;;5132143;27;20019;-48
2022/09/10 05:47:05;;;;;;;5.25;2.30;;;;;;;;;;5132174;27;20019;-44
2022/09/10 05:49:31;;;;;;;3.38;1.70;;;;;;;;;;5131758;27;20163;-46
2022/09/10 05:51:56;;;;;;;7.38;1.20;;;;;;;;;;5134566;27;20498;-50
2022/09/10 05:54:22;;;;;;;2.67;1.80;;;;;;;;;;5139438;27;20023;-48
2022/09/10 05:56:47;;;;;;;3.13;0.95;;;;;;;;;;5135480;27;20426;-49
2022/09/10 05:59:12;;;;;;;6.45;2.85;;;;;;;;;;5136263;27;20569;-50
2022/09/10 06:01:38;;;;;;;7.32;2.08;;;;;;;;;;5135633;27;20015;-51
2022/09/10 06:04:03;;;;;;;6.30;1.48;;;;;;;;;;5133248;27;20039;-48
2022/09/10 06:06:28;;;;;;;2.40;1.05;;;;;;;;;;5130910;27;20476;-48
2022/09/10 06:08:54;;;;;;;2.33;1.27;;;;;;;;;;5136682;27;20462;-48
2022/09/10 06:11:19;;;;;;;3.38;1.63;;;;;;;;;;5133029;27;20051;-48
2022/09/10 06:13:45;;;;;;;2.92;2.00;;;;;;;;;;5133645;27;20018;-50
2022/09/10 06:16:11;;;;;;;3.92;1.60;;;;;;;;;;5126406;27;20418;-51
2022/09/10 06:18:37;;;;;;;2.15;1.45;;;;;;;;;;5128757;27;20100;-48
2022/09/10 06:21:04;;;;;;;0.93;0.70;;;;;;;;;;5135381;27;20023;-45
2022/09/10 06:23:30;;;;;;;5.38;3.25;;;;;;;;;;5131104;27;20098;-49
2022/09/10 06:26:05;;;;;;;5.88;1.80;;;;;;;;;;5127072;27;20379;-49
2022/09/10 06:28:31;;;;;;;3.03;1.30;;;;;;;;;;5131068;27;20023;-48
2022/09/10 06:30:57;;;;;;;3.50;2.13;;;;;;;;;;5130600;27;20015;-51
2022/09/10 06:33:22;;;;;;;3.55;1.33;;;;;;;;;;5131394;27;20107;-45
2022/09/10 06:35:51;;;;;;;4.30;2.90;;;;;;;;;;5130066;27;20023;-47
2022/09/10 06:38:16;;;;;;;6.40;4.40;;;;;;;;;;5129020;27;20389;-47
2022/09/10 06:40:54;;;;;;;76.70;14.32;;;;;;;;;;5125215;27;20023;-45
2022/09/10 06:43:23;;;;;;;12.63;2.13;;;;;;;;;;5127399;27;20480;-48
2022/09/10 06:45:54;;;;;;;10.25;3.42;;;;;;;;;;5122181;27;20122;-48
2022/09/10 06:48:20;;;;;;;8.75;3.85;;;;;;;;;;5127067;27;20027;-46
2022/09/10 06:50:50;;;;;;;28.88;5.75;;;;;;;;;;5131014;27;20023;-49
2022/09/10 06:53:15;;;;;;;2.63;1.90;;;;;;;;;;5130988;27;20032;-48
2022/09/10 06:55:40;;;;;;;2.88;1.73;;;;;;;;;;5126602;27;20062;-46
2022/09/10 06:58:06;;;;;;;4.13;1.88;;;;;;;;;;5128682;27;20662;-45
2022/09/10 07:00:31;;;;;;;4.10;2.33;;;;;;;;;;5136502;27;20015;-49
2022/09/10 07:02:56;;;;;;;6.47;3.10;;;;;;;;;;5130844;27;20042;-44
2022/09/10 07:05:22;;;;;;;8.70;2.97;;;;;;;;;;5136243;27;20493;-42
2022/09/10 07:07:47;;;;;;;8.48;4.50;;;;;;;;;;5134399;27;20027;-44
2022/09/10 07:10:12;;;;;;;17.10;5.35;;;;;;;;;;5132169;27;20015;-42
2022/09/10 07:12:37;;;;;;;3.95;3.53;;;;;;;;;;5131288;27;20496;-45
2022/09/10 07:15:03;;;;;;;9.30;4.55;;;;;;;;;;5131426;27;20462;-50
2022/09/10 07:17:28;;;;;;;3.78;2.70;;;;;;;;;;5130202;27;20011;-49
2022/09/10 07:19:54;;;;;;;4.18;2.92;;;;;;;;;;5132497;27;20584;-44
2022/09/10 07:22:19;;;;;;;6.80;5.35;;;;;;;;;;5131201;27;20011;-46
2022/09/10 07:24:45;;;;;;;5.32;4.82;;;;;;;;;;5130330;27;20038;-47
2022/09/10 07:27:10;;;;;;;7.35;3.38;;;;;;;;;;5133343;27;20574;-47
2022/09/10 07:29:35;;;;;;;7.55;4.05;;;;;;;;;;5136651;27;20049;-45
2022/09/10 07:32:03;;;;;;;4.03;3.35;;;;;;;;;;5135438;27;20094;-49
2022/09/10 07:34:29;;;;;;;8.43;4.07;;;;;;;;;;5133967;27;20023;-45
2022/09/10 07:36:55;;;;;;;2.70;2.08;;;;;;;;;;5133754;27;20038;-50
2022/09/10 07:39:22;;;;;;;4.88;3.00;;;;;;;;;;5137728;27;20019;-43
2022/09/10 07:41:47;;;;;;;2.88;2.13;;;;;;;;;;5138028;27;20030;-43
2022/09/10 07:44:13;;;;;;;3.33;1.80;;;;;;;;;;5134831;27;20023;-48
2022/09/10 07:46:38;;;;;;;5.90;1.83;;;;;;;;;;5136960;27;20018;-45
2022/09/10 07:49:03;;;;;;;3.08;1.77;;;;;;;;;;5129212;27;20023;-43
2022/09/10 07:51:29;;;;;;;3.20;1.70;;;;;;;;;;5131769;27;20066;-46
2022/09/10 07:53:55;;;;;;;1.95;1.38;;;;;;;;;;5134725;27;20102;-46
2022/09/10 07:56:22;;;;;;;1.48;1.00;;;;;;;;;;5129171;27;20116;-44
2022/09/10 07:58:47;;;;;;;3.50;1.42;;;;;;;;;;5124905;27;20072;-47
2022/09/10 08:01:12;;;;;;;3.72;1.95;;;;;;;;;;5133105;27;20019;-48
2022/09/10 08:03:38;;;;;;;8.23;2.55;;;;;;;;;;5135214;27;20023;-48
2022/09/10 08:06:04;;;;;;;3.75;1.65;;;;;;;;;;5132807;27;20086;-45
2022/09/10 08:08:30;;;;;;;2.83;1.10;;;;;;;;;;5131103;27;20026;-48
2022/09/10 08:11:03;;;;;;;5.28;1.60;;;;;;;;;;5133822;27;20027;-41
2022/09/10 08:13:28;;;;;;;2.47;1.63;;;;;;;;;;5112702;27;20093;-46
2022/09/10 08:15:56;;;;;;;1.65;1.13;;;;;;;;;;5132285;27;20415;-52
2022/09/10 08:18:22;;;;;;;2.10;1.90;;;;;;;;;;5132767;27;20427;-46
2022/09/10 08:20:52;;;;;;;4.15;2.47;;;;;;;;;;5135164;27;20038;-51
2022/09/10 08:23:18;;;;;;;9.85;3.10;;;;;;;;;;5133673;27;20030;-52
2022/09/10 08:25:50;;;;;;;15.45;4.75;;;;;;;;;;5129588;27;20045;-47
2022/09/10 08:28:18;;;;;;;4.55;2.42;;;;;;;;;;5131654;27;20023;-46
2022/09/10 08:30:55;;;;;;;9.52;2.45;;;;;;;;;;5132480;27;20499;-48
2022/09/10 08:33:20;;;;;;;1.85;1.05;;;;;;;;;;5132358;27;20019;-49
2022/09/10 08:35:50;;;;;;;2.15;1.25;;;;;;;;;;5131388;27;20106;-48
2022/09/10 08:38:16;;;;;;;2.30;1.05;;;;;;;;;;5137612;27;20047;-45
2022/09/10 08:40:41;;;;;;;6.40;1.65;;;;;;;;;;5134112;27;20066;-49
2022/09/10 08:43:08;;;;;;;2.60;1.73;;;;;;;;;;5134000;27;20697;-50
2022/09/10 08:45:34;;;;;;;4.43;1.65;;;;;;;;;;5118172;27;20030;-48
2022/09/10 08:47:59;;;;;;;6.65;2.55;;;;;;;;;;5127241;27;20019;-53
2022/09/10 08:50:40;;;;;;;4.78;4.18;;;;;;;;;;5132871;27;20262;-48
2022/09/10 08:53:24;;;;;;;4.43;1.98;;;;;;;;;;5130453;27;20038;-50
2022/09/10 08:55:51;;;;;;;1.80;1.13;;;;;;;;;;5130045;27;20043;-49
2022/09/10 08:58:17;;;;;;;2.35;1.23;;;;;;;;;;5132781;27;20019;-50
2022/09/10 09:00:44;;;;;;;1.48;0.85;;;;;;;;;;5135155;27;20635;-53
2022/09/10 09:03:26;;;;;;;1.20;0.80;;;;;;;;;;5129977;27;20029;-49
2022/09/10 09:05:57;;;;;;;2.17;0.85;;;;;;;;;;5125245;27;20015;-49
2022/09/10 09:08:24;;;;;;;1.13;1.00;;;;;;;;;;5131712;27;20023;-51
2022/09/10 09:10:49;;;;;;;1.45;0.80;;;;;;;;;;5133853;27;20030;-49
2022/09/10 09:13:31;;;;;;;0.95;0.85;;;;;;;;;;5132995;27;20015;-49
2022/09/10 09:16:22;;;;;;;9.48;1.30;;;;;;;;;;5128774;27;20019;-52
2022/09/10 09:19:06;;;;;;;0.40;0.40;;;;;;;;;;5094851;27;20500;-46
2022/09/10 09:21:40;;;;;;;1.13;0.90;;;;;;;;;;5136072;27;20031;-48
2022/09/10 09:24:26;;;;;;;3.90;1.05;;;;;;;;;;5135191;27;20104;-46
2022/09/10 09:26:54;;;;;;;1.73;0.80;;;;;;;;;;5069691;27;20134;-48
2022/09/10 09:29:23;;;;;;;2.85;1.13;;;;;;;;;;5134504;27;20007;-49
2022/09/10 09:31:51;;;;;;;3.33;2.38;;;;;;;;;;5130963;27;20076;-55
2022/09/10 09:34:37;;;;;;;5.28;1.73;;;;;;;;;;5132480;27;20098;-52
2022/09/10 09:37:10;;;;;;;1.70;1.60;;;;;;;;;;5130300;27;20020;-51
2022/09/10 09:39:46;;;;;;;1.90;0.77;;;;;;;;;;5122688;27;20020;-48
2022/09/10 09:42:14;;;;;;;4.93;1.63;;;;;;;;;;5128238;27;20368;-51
2022/09/10 09:44:45;;;;;;;2.25;1.20;;;;;;;;;;5136050;27;20026;-47
2022/09/10 09:47:10;;;;;;;;;;;;;;;;;;5131301;27;20109;-46
2022/09/10 09:49:35;;;;;;;3.17;1.27;;;;;;;;;;5130342;27;20046;-49
2022/09/10 09:52:11;;;;;;;4.32;1.38;;;;;;;;;;5125658;27;20026;-50
2022/09/10 09:54:42;;;;;;;2.45;1.05;;;;;;;;;;5135366;27;20497;-50
2022/09/10 09:57:07;;;;;;;;;;;;;;;;;;5138354;27;20042;-50
2022/09/10 09:59:33;;;;;;;4.32;1.40;;;;;;;;;;5132478;27;19910;-51
2022/09/10 10:02:10;;;;;;;2.08;1.02;;;;;;;;;;5134313;27;20151;-47
2022/09/10 10:04:35;;;;;;;1.65;1.00;;;;;;;;;;5137688;27;20018;-46
2022/09/10 10:07:01;;;;;;;1.48;0.70;;;;;;;;;;5130695;27;20042;-48
2022/09/10 10:09:31;;;;;;;3.20;1.13;;;;;;;;;;5130239;27;20413;-46
2022/09/10 10:12:01;;;;;;;4.53;2.10;;;;;;;;;;5130110;27;20019;-51
2022/09/10 10:14:29;;;;;;;1.50;0.90;;;;;;;;;;5134555;27;20015;-44
2022/09/10 10:16:54;;;;;;;4.22;1.00;;;;;;;;;;5129693;27;20887;-51
2022/09/10 10:19:39;;;;;;;1.70;1.17;;;;;;;;;;5128131;27;20022;-51
2022/09/10 10:22:13;;;;;;;1.15;0.60;;;;;;;;;;5134143;27;20026;-44
2022/09/10 10:24:39;;;;;;;3.40;0.68;;;;;;;;;;5145380;27;20022;-46
2022/09/10 10:27:04;;;;;;;4.43;1.55;;;;;;;;;;5131585;27;20060;-44
2022/09/10 10:29:30;;;;;;;1.90;1.08;;;;;;;;;;5130074;27;20382;-44
2022/09/10 10:31:56;;;;;;;4.60;1.00;;;;;;;;;;5136694;27;20012;-49
2022/09/10 10:34:22;;;;;;;8.98;3.03;;;;;;;;;;5130653;27;20034;-44
2022/09/10 10:36:52;;;;;;;3.13;1.15;;;;;;;;;;5127695;27;20031;-45
2022/09/10 10:39:23;;;;;;;2.00;1.20;;;;;;;;;;5126498;27;20081;-46
2022/09/10 10:41:49;;;;;;;2.55;1.70;;;;;;;;;;5126860;27;20107;-47
2022/09/10 10:44:14;;;;;;;2.75;0.75;;;;;;;;;;5135230;27;20471;-45
2022/09/10 10:46:43;;;;;;;1.70;0.85;;;;;;;;;;5134579;27;20023;-47
2022/09/10 10:49:08;;;;;;;2.30;1.23;;;;;;;;;;5132394;27;20019;-48
2022/09/10 10:52:00;;;;;;;1.98;0.88;;;;;;;;;;5136787;27;20683;-49
2022/09/10 10:54:48;;;;;;;1.23;0.80;;;;;;;;;;5099190;27;20027;-49
2022/09/10 10:57:32;;;;;;;0.80;0.68;;;;;;;;;;5085301;27;20126;-47
2022/09/10 11:00:01;;;;;;;1.90;0.75;;;;;;;;;;5131963;27;20052;-44
2022/09/10 11:02:51;;;;;;;5.05;1.90;;;;;;;;;;5136104;27;20098;-44
2022/09/10 11:05:16;;;;;;;;;;;;;;;;;;5137222;27;20110;-45
2022/09/10 11:07:42;;;;;;;3.10;0.77;;;;;;;;;;5135867;27;19998;-45
2022/09/10 11:10:10;;;;;;;3.90;1.42;;;;;;;;;;5143147;27;20389;-43
2022/09/10 11:12:59;;;;;;;1.10;0.65;;;;;;;;;;5133171;27;20645;-49
2022/09/10 11:15:29;;;;;;;2.28;0.82;;;;;;;;;;5122257;27;20027;-48
2022/09/10 11:17:58;;;;;;;2.08;1.45;;;;;;;;;;5134602;27;20311;-46
2022/09/10 11:20:50;;;;;;;2.15;0.95;;;;;;;;;;5133552;27;20110;-44
2022/09/10 11:23:34;;;;;;;10.07;1.75;;;;;;;;;;5132255;27;20088;-61
2022/09/10 11:26:14;;;;;;;6.20;1.27;;;;;;;;;;5133184;27;20047;-60
2022/09/10 11:28:45;;;;;;;2.38;0.88;;;;;;;;;;5132134;27;20025;-61
2022/09/10 11:31:27;;;;;;;2.10;0.90;;;;;;;;;;5130773;27;20023;-60
2022/09/10 11:34:04;;;;;;;2.10;0.60;;;;;;;;;;5131761;27;20024;-61
2022/09/10 11:36:37;;;;;;;1.25;0.68;;;;;;;;;;5128277;27;20020;-61
2022/09/10 11:39:02;;;;;;;3.35;1.00;;;;;;;;;;5136022;27;20027;-62
2022/09/10 11:41:30;;;;;;;3.10;0.98;;;;;;;;;;5132364;27;20308;-61
2022/09/10 11:44:07;;;;;;;1.95;1.33;;;;;;;;;;5133595;27;20270;-59
2022/09/10 11:46:53;;;;;;;1.48;0.80;;;;;;;;;;5135120;27;20098;-62
2022/09/10 11:49:35;;;;;;;2.08;0.88;;;;;;;;;;5121236;27;20027;-58
2022/09/10 11:52:00;;;;;;;4.50;1.77;;;;;;;;;;5133579;27;20023;-59
2022/09/10 11:54:27;;;;;;;1.88;0.75;;;;;;;;;;5138991;27;20587;-59
2022/09/10 11:57:01;;;;;;;1.75;0.70;;;;;;;;;;5135278;27;20047;-59
2022/09/10 11:59:40;;;;;;;2.30;1.00;;;;;;;;;;5133009;27;20052;-61
2022/09/10 12:02:24;;;;;;;1.55;0.88;;;;;;;;;;5137953;27;20695;-62
2022/09/10 12:04:59;;;;;;;2.00;0.93;;;;;;;;;;5133626;27;20026;-60
2022/09/10 12:07:36;;;;;;;1.50;0.85;;;;;;;;;;5134439;27;20393;-62
2022/09/10 12:10:02;;;;;;;2.38;0.95;;;;;;;;;;5132511;27;20023;-61
2022/09/10 12:12:30;;;;;;;1.27;0.50;;;;;;;;;;5135569;27;20367;-62
2022/09/10 12:14:56;;;;;;;1.27;0.45;;;;;;;;;;5133627;27;20017;-64
2022/09/10 12:17:26;;;;;;;3.00;0.90;;;;;;;;;;5132693;27;20114;-65
2022/09/10 12:19:53;;;;;;;0.75;0.38;;;;;;;;;;5135274;27;20038;-64
2022/09/10 12:22:20;;;;;;;2.25;1.13;;;;;;;;;;5135013;27;20071;-64
2022/09/10 12:24:53;;;;;;;3.45;0.88;;;;;;;;;;5130532;27;20436;-62
2022/09/10 12:27:19;;;;;;;2.97;1.13;;;;;;;;;;5130452;27;20023;-65
2022/09/10 12:29:44;;;;;;;1.48;0.38;;;;;;;;;;5125595;27;20030;-65
2022/09/10 12:32:18;;;;;;;1.05;0.70;;;;;;;;;;5128093;27;20019;-64
2022/09/10 12:34:48;;;;;;;1.55;0.93;;;;;;;;;;5129094;27;20023;-64
2022/09/10 12:37:19;;;;;;;1.93;1.20;;;;;;;;;;5131524;27;20097;-62
2022/09/10 12:39:45;;;;;;;2.33;0.70;;;;;;;;;;5127383;27;20033;-63
2022/09/10 12:42:30;;;;;;;1.42;0.43;;;;;;;;;;5133257;27;20114;-65
2022/09/10 12:44:56;;;;;;;4.97;0.95;;;;;;;;;;5133664;27;20027;-64
2022/09/10 12:47:22;;;;;;;7.03;3.25;;;;;;;;;;5135619;27;20053;-64
2022/09/10 12:49:52;;;;;;;2.95;0.88;;;;;;;;;;5134667;27;20058;-62
2022/09/10 12:52:23;;;;;;;6.70;1.42;;;;;;;;;;5130950;27;20018;-63
2022/09/10 12:54:51;;;;;;;2.97;1.10;;;;;;;;;;5128824;27;20070;-64
2022/09/10 12:57:23;;;;;;;1.60;1.02;;;;;;;;;;5130594;27;20019;-61
2022/09/10 12:59:51;;;;;;;3.42;1.25;;;;;;;;;;5127769;27;20019;-62
2022/09/10 13:02:25;;;;;;;2.83;0.93;;;;;;;;;;5130930;27;20055;-61
2022/09/10 13:04:55;;;;;;;7.93;1.27;;;;;;;;;;5133921;27;20069;-62
2022/09/10 13:07:22;;;;;;;1.52;1.00;;;;;;;;;;5131612;27;20555;-61
2022/09/10 13:09:59;;;;;;;0.75;0.57;;;;;;;;;;5132580;27;20035;-61
2022/09/10 13:12:25;;;;;;;1.17;0.85;;;;;;;;;;5128951;27;20015;-60
2022/09/10 13:14:52;;;;;;;1.83;0.65;;;;;;;;;;5129690;27;20015;-62
2022/09/10 13:17:36;;;;;;;1.23;0.82;;;;;;;;;;5135534;27;20060;-62
2022/09/10 13:20:31;;;;;;;0.93;0.55;;;;;;;;;;5132076;27;20071;-62
2022/09/10 13:23:17;;;;;;;3.10;1.02;;;;;;;;;;5110832;27;20050;-62
2022/09/10 13:25:44;;;;;;;3.63;2.58;;;;;;;;;;5128054;27;20481;-63
2022/09/10 13:28:27;;;;;;;2.58;1.10;;;;;;;;;;5129831;27;20022;-62
2022/09/10 13:31:00;;;;;;;1.83;1.00;;;;;;;;;;5133054;27;20026;-62
2022/09/10 13:33:28;;;;;;;1.13;0.88;;;;;;;;;;5128517;27;20026;-61
2022/09/10 13:36:19;;;;;;;1.58;1.02;;;;;;;;;;5132189;27;20019;-61
2022/09/10 13:38:56;;;;;;;1.55;1.02;;;;;;;;;;5103590;27;20149;-62
2022/09/10 13:41:25;;;;;;;2.95;0.95;;;;;;;;;;5136516;27;20019;-63
2022/09/10 13:43:50;;;;;;;1.83;0.68;;;;;;;;;;5129157;27;20497;-63
2022/09/10 13:46:34;;;;;;;1.92;1.13;;;;;;;;;;5134582;27;20030;-61
2022/09/10 13:49:06;;;;;;;0.85;0.77;;;;;;;;;;5135046;27;20011;-62
2022/09/10 13:51:39;;;;;;;2.72;0.90;;;;;;;;;;5134048;27;20015;-63
2022/09/10 13:54:16;;;;;;;2.58;1.05;;;;;;;;;;5133258;27;20196;-62
2022/09/10 13:56:45;;;;;;;2.25;1.00;;;;;;;;;;5128871;27;20055;-61
2022/09/10 13:59:15;;;;;;;1.13;0.70;;;;;;;;;;5133746;27;20025;-61
2022/09/10 14:01:47;;;;;;;0.68;0.50;;;;;;;;;;5129561;27;20092;-64
2022/09/10 14:04:21;;;;;;;6.75;0.73;;;;;;;;;;5132986;27;20031;-63
2022/09/10 14:06:47;;;;;;;2.45;0.95;;;;;;;;;;5132344;27;20094;-64
2022/09/10 14:09:12;;;;;;;1.27;0.90;;;;;;;;;;5130647;27;20122;-66
2022/09/10 14:11:40;;;;;;;1.73;0.68;;;;;;;;;;5129604;27;20018;-66
2022/09/10 14:14:12;;;;;;;1.15;0.88;;;;;;;;;;5133205;27;20014;-64
2022/09/10 14:16:49;;;;;;;3.22;0.75;;;;;;;;;;5128585;27;20147;-64
2022/09/10 14:19:17;;;;;;;2.72;1.60;;;;;;;;;;5131040;27;20015;-65
2022/09/10 14:21:47;;;;;;;2.35;1.13;;;;;;;;;;5128835;27;20031;-66
2022/09/10 14:24:29;;;;;;;2.92;1.38;;;;;;;;;;5128799;27;20095;-63
2022/09/10 14:27:05;;;;;;;2.15;1.13;;;;;;;;;;5129408;27;20030;-63
2022/09/10 14:29:31;;;;;;;1.70;1.00;;;;;;;;;;5127018;27;20039;-63
2022/09/10 14:31:56;;;;;;;1.95;0.90;;;;;;;;;;5129497;27;20026;-65
2022/09/10 14:34:25;;;;;;;0.82;0.65;;;;;;;;;;5126231;27;20011;-64
2022/09/10 14:36:51;;;;;;;3.45;2.15;;;;;;;;;;5130127;27;20023;-65
2022/09/10 14:39:20;;;;;;;2.53;1.10;;;;;;;;;;5126523;27;20011;-67
2022/09/10 14:41:46;;;;;;;5.85;1.42;;;;;;;;;;5131277;27;20030;-66
2022/09/10 14:44:26;;;;;;;1.55;0.77;;;;;;;;;;5128036;27;20015;-64
2022/09/10 14:46:56;;;;;;;1.50;0.63;;;;;;;;;;5128886;27;20152;-65
2022/09/10 14:49:32;;;;;;;1.75;0.90;;;;;;;;;;5129734;27;20027;-66
2022/09/10 14:51:58;;;;;;;1.80;1.15;;;;;;;;;;5130459;27;20113;-65
2022/09/10 14:54:27;;;;;;;5.93;1.23;;;;;;;;;;5129798;27;20102;-65